Billings, MT

11:09 AM MST on February 19, 2017 (GMT -0700)
Yellowstone RV Campground | | Change Station

Elev 3120 ft 45.76 °N, 108.48 °W | Updated 30 seconds ago

Partly Cloudy
Partly Cloudy
50.5 °F
Feels Like 50.5 °F
N
0.0
Wind Variable Wind from West
Gusts 0.0 mph

Today
High -- | Low -- °F
--% Chance of Precip.
Yesterday
High -- | Low -- °F
Precip. -- in
Pressure 29.43 in
Visibility 10.0 miles
Clouds Few 9000 ft
Few 15000 ft
Scattered Clouds 25000 ft
Dew Point 25 °F
Humidity 37%
Rainfall 0.00 in
Snow Depth Not available.
7:09 AM 5:46 PM
Last Quarter, 41% visible
METAR KBIL 191753Z 23016KT 10SM FEW090 FEW150 SCT250 10/01 A2943 RMK AO2 SLP966 T01000011 10100 20011 58004 $
Pressure 29.43 in
Visibility 10.0 miles
Clouds Few 9000 ft
Few 15000 ft
Scattered Clouds 25000 ft
Dew Point 25 °F
Humidity 37%
Rainfall 0.00 in
Snow Depth Not available.
7:09 AM 5:46 PM
Last Quarter, 41% visible
METAR KBIL 191753Z 23016KT 10SM FEW090 FEW150 SCT250 10/01 A2943 RMK AO2 SLP966 T01000011 10100 20011 58004 $

Get Your Daily Forecast Email!

Thanks for signing up!

Be on the lookout for a verification email in your inbox.

You'll start receiving the daily forecast at 8 AM.

×

10-Day Weather Forecast

Almanac

Astronomy

Feb. 19, 2017 Rise Set
Actual Time
Civil Twilight
Nautical Twilight
Astronomical Twilight
Moon
Length of Visible Light
Length of Day
Tomorrow will be .
, % of the Moon is Illuminated

Today's Extremes

State Highs State Lows

Community

WunderPhotos

Upload Photos

1,962,540 photos uploaded!

WunderBlog® & News

Nearby

Air Quality

  Air Quality AQ Index Pollutant
Not available.

Snow Depth

Station Depth Elevation

Earthquake Activity

City Distance Mag. Time & Date
Minimum magnitude displayed is 2.5.

Coastal Water Temperatures

Place Temperature

Stations

Nearby Weather Stations

Station Location Temp. Windchill Dew Point Humidity Wind Precip. Elev Updated Type
                   

Watches & Warnings

There are currently no watches in effect.